Map

Track Data

SID SEASON NUMBER BASIN SUBBASIN NAME ISO_TIME NATURE LAT LON WMO_WIND WMO_PRES WMO_AGENCY TRACK_TYPE DIST2LAND LANDFALL IFLAG USA_AGENCY USA_ATCF_ID USA_LAT USA_LON USA_RECORD USA_STATUS USA_WIND USA_PRES USA_SSHS USA_R34_NE USA_R34_SE USA_R34_SW USA_R34_NW USA_R50_NE USA_R50_SE USA_R50_SW USA_R50_NW USA_R64_NE USA_R64_SE USA_R64_SW USA_R64_NW USA_POCI USA_ROCI USA_RMW USA_EYE TOKYO_LAT TOKYO_LON TOKYO_GRADE TOKYO_WIND TOKYO_PRES TOKYO_R50_DIR TOKYO_R50_LONG TOKYO_R50_SHORT TOKYO_R30_DIR TOKYO_R30_LONG TOKYO_R30_SHORT TOKYO_LAND CMA_LAT CMA_LON CMA_CAT CMA_WIND CMA_PRES HKO_LAT HKO_LON HKO_CAT HKO_WIND HKO_PRES NEWDELHI_LAT NEWDELHI_LON NEWDELHI_GRADE NEWDELHI_WIND NEWDELHI_PRES NEWDELHI_CI NEWDELHI_DP NEWDELHI_POCI REUNION_LAT REUNION_LON REUNION_TYPE REUNION_WIND REUNION_PRES REUNION_TNUM REUNION_CI REUNION_RMW REUNION_R34_NE REUNION_R34_SE REUNION_R34_SW REUNION_R34_NW REUNION_R50_NE REUNION_R50_SE REUNION_R50_SW REUNION_R50_NW REUNION_R64_NE REUNION_R64_SE REUNION_R64_SW REUNION_R64_NW BOM_LAT BOM_LON BOM_TYPE BOM_WIND BOM_PRES BOM_TNUM BOM_CI BOM_RMW BOM_R34_NE BOM_R34_SE BOM_R34_SW BOM_R34_NW BOM_R50_NE BOM_R50_SE BOM_R50_SW BOM_R50_NW BOM_R64_NE BOM_R64_SE BOM_R64_SW BOM_R64_NW BOM_ROCI BOM_POCI BOM_EYE BOM_POS_METHOD BOM_PRES_METHOD NADI_LAT NADI_LON NADI_CAT NADI_WIND NADI_PRES WELLINGTON_LAT WELLINGTON_LON WELLINGTON_WIND WELLINGTON_PRES DS824_LAT DS824_LON DS824_STAGE DS824_WIND DS824_PRES TD9636_LAT TD9636_LON TD9636_STAGE TD9636_WIND TD9636_PRES TD9635_LAT TD9635_LON TD9635_WIND TD9635_PRES TD9635_ROCI NEUMANN_LAT NEUMANN_LON NEUMANN_CLASS NEUMANN_WIND NEUMANN_PRES MLC_LAT MLC_LON MLC_CLASS MLC_WIND MLC_PRES USA_GUST BOM_GUST BOM_GUST_PER REUNION_GUST REUNION_GUST_PER USA_SEAHGT USA_SEARAD_NE USA_SEARAD_SE USA_SEARAD_SW USA_SEARAD_NW STORM_SPEED STORM_DIR
1891278N12277 1891 43 NA CS NOT_NAMED 1891-10-05 00:00:00 TS 12.0000 -83.5000 main 21 21 _____________O -1 12.0000 -83.5000 TD 30 2 28
1891278N12277 1891 43 NA CS NOT_NAMED 1891-10-05 03:00:00 TS 12.1100 -83.4500 main 21 21 _____________P -1 12.1100 -83.4500 TD 30 2 27
1891278N12277 1891 43 NA CS NOT_NAMED 1891-10-05 06:00:00 TS 12.2000 -83.4000 main 24 15 _____________O -1 12.2000 -83.4000 TD 30 2 34
1891278N12277 1891 43 NA CS NOT_NAMED 1891-10-05 09:00:00 TS 12.2575 -83.3500 main 24 24 _____________P -1 12.2575 -83.3500 TD 30 1 43
1891278N12277 1891 43 NA CS NOT_NAMED 1891-10-05 12:00:00 TS 12.3000 -83.3000 main 24 24 _____________O -1 12.3000 -83.3000 TD 30 1 48
1891278N12277 1891 43 NA CS NOT_NAMED 1891-10-05 15:00:00 TS 12.3500 -83.2425 main 32 32 _____________P -1 12.3500 -83.2425 TD 30 1 43
1891278N12277 1891 43 NA CS NOT_NAMED 1891-10-05 18:00:00 TS 12.4000 -83.2000 main 32 32 _____________O -1 12.4000 -83.2000 TD 30 1 28
1891278N12277 1891 43 NA CS NOT_NAMED 1891-10-05 21:00:00 TS 12.4200 -83.2000 main 32 32 _____________P -1 12.4200 -83.2000 TD 32 1 0
1891278N12277 1891 43 NA CS NOT_NAMED 1891-10-06 00:00:00 TS 12.5000 -83.2000 main 32 32 _____________O -1 12.5000 -83.2000 TS 35 3 6
1891278N12277 1891 43 NA CS NOT_NAMED 1891-10-06 03:00:00 TS 12.7275 -83.1575 main 32 32 _____________P -1 12.7275 -83.1575 TS 37 5 11
1891278N12277 1891 43 NA CS NOT_NAMED 1891-10-06 06:00:00 TS 13.0000 -83.1000 main 43 43 _____________O -1 13.0000 -83.1000 TS 40 5 12
1891278N12277 1891 43 NA CS NOT_NAMED 1891-10-06 09:00:00 TS 13.2075 -83.0500 main 54 54 _____________P -1 13.2075 -83.0500 TS 42 4 13
1891278N12277 1891 43 NA CS NOT_NAMED 1891-10-06 12:00:00 TS 13.4000 -83.0000 main 54 54 _____________O -1 13.4000 -83.0000 TS 45 4 13
1891278N12277 1891 43 NA CS NOT_NAMED 1891-10-06 15:00:00 TS 13.6097 -82.9476 main 64 58 _____________P -1 13.6097 -82.9476 TS 45 4 13
1891278N12277 1891 43 NA CS NOT_NAMED 1891-10-06 18:00:00 TS 13.8000 -82.9000 main 58 54 _____________O -1 13.8000 -82.9000 TS 45 3 15
1891278N12277 1891 43 NA CS NOT_NAMED 1891-10-06 21:00:00 TS 13.9111 -82.8635 main 54 54 _____________P -1 13.9111 -82.8635 TS 2 17
1891278N12277 1891 43 NA CS NOT_NAMED 1891-10-07 00:00:00 TS 13.9689 -82.8371 main 54 54 _____________P -1 13.9689 -82.8371 TS 1 23
1891278N12277 1891 43 NA CS NOT_NAMED 1891-10-07 03:00:00 TS 14.0000 -82.8192 main 54 54 _____________P -1 14.0000 -82.8192 TS 1 25
1891278N12277 1891 43 NA CS NOT_NAMED 1891-10-07 06:00:00 TS 14.0311 -82.8082 main 54 48 _____________P -1 14.0311 -82.8082 TS 1 0
1891278N12277 1891 43 NA CS NOT_NAMED 1891-10-07 09:00:00 TS 14.0889 -82.8024 main 48 44 _____________P -1 14.0889 -82.8024 TS 2 0
1891278N12277 1891 43 NA CS NOT_NAMED 1891-10-07 12:00:00 TS 14.2000 -82.8000 main 44 43 _____________O -1 14.2000 -82.8000 TS 45 3 0
1891278N12277 1891 43 NA CS NOT_NAMED 1891-10-07 15:00:00 TS 14.3903 -82.7988 main 44 44 _____________P -1 14.3903 -82.7988 TS 47 4 0
1891278N12277 1891 43 NA CS NOT_NAMED 1891-10-07 18:00:00 TS 14.6000 -82.8000 main 53 39 _____________O -1 14.6000 -82.8000 TS 50 4 0
1891278N12277 1891 43 NA CS NOT_NAMED 1891-10-07 21:00:00 TS 14.8000 -82.8000 main 39 32 _____________P -1 14.8000 -82.8000 TS 52 4 0
1891278N12277 1891 43 NA CS NOT_NAMED 1891-10-08 00:00:00 TS 15.0000 -82.8000 main 32 32 _____________O -1 15.0000 -82.8000 TS 55 4 0
1891278N12277 1891 43 NA CS NOT_NAMED 1891-10-08 03:00:00 TS 15.2000 -82.8000 main 39 39 _____________P -1 15.2000 -82.8000 TS 57 4 0
1891278N12277 1891 43 NA CS NOT_NAMED 1891-10-08 06:00:00 TS 15.4000 -82.8000 main 55 55 _____________O -1 15.4000 -82.8000 TS 60 4 0
1891278N12277 1891 43 NA CS NOT_NAMED 1891-10-08 09:00:00 TS 15.6000 -82.7850 main 72 72 _____________P -1 15.6000 -82.7850 TS 60 4 0
1891278N12277 1891 43 NA CS NOT_NAMED 1891-10-08 12:00:00 TS 15.8000 -82.8000 main 85 85 _____________O -1 15.8000 -82.8000 TS 60 4 346
1891278N12277 1891 43 NA CS NOT_NAMED 1891-10-08 15:00:00 TS 16.0000 -82.8925 main 94 94 _____________P -1 16.0000 -82.8925 TS 62 4 334
1891278N12277 1891 43 NA CS NOT_NAMED 1891-10-08 18:00:00 TS 16.2000 -83.0000 main 109 109 _____________O -1 16.2000 -83.0000 HU 65 4 339
1891278N12277 1891 43 NA CS NOT_NAMED 1891-10-08 21:00:00 TS 16.4000 -83.0501 main 127 127 _____________P -1 16.4000 -83.0501 HU 70 4 347
1891278N12277 1891 43 NA CS NOT_NAMED 1891-10-09 00:00:00 TS 16.6000 -83.1000 main 147 147 _____________O -1 16.6000 -83.1000 HU 75 4 341
1891278N12277 1891 43 NA CS NOT_NAMED 1891-10-09 03:00:00 TS 16.8075 -83.2000 main 159 159 _____________P -1 16.8075 -83.2000 HU 80 4 335
1891278N12277 1891 43 NA CS NOT_NAMED 1891-10-09 06:00:00 TS 17.0000 -83.3000 main 171 171 _____________O -1 17.0000 -83.3000 HU 85 4 338
1891278N12277 1891 43 NA CS NOT_NAMED 1891-10-09 09:00:00 TS 17.1575 -83.3501 main 183 183 _____________P -1 17.1575 -83.3501 HU 90 3 343
1891278N12277 1891 43 NA CS NOT_NAMED 1891-10-09 12:00:00 TS 17.3000 -83.4000 main 193 193 _____________O -1 17.3000 -83.4000 HU 95 3 335
1891278N12277 1891 43 NA CS NOT_NAMED 1891-10-09 15:00:00 TS 17.4500 -83.4925 main 208 204 _____________P -1 17.4500 -83.4925 HU 97 4 328
1891278N12277 1891 43 NA CS NOT_NAMED 1891-10-09 18:00:00 NR 17.6000 -83.6000 main 214 214 _____________O -1 17.6000 -83.6000 MH 100 4 327
1891278N12277 1891 43 NA CS NOT_NAMED 1891-10-09 21:00:00 NR 17.7500 -83.7000 main 222 222 _____________P -1 17.7500 -83.7000 MH 102 4 328
1891278N12277 1891 43 NA CS NOT_NAMED 1891-10-10 00:00:00 NR 17.9000 -83.8000 main 240 240 _____________O -1 17.9000 -83.8000 MH 105 4 328
1891278N12277 1891 43 NA CS NOT_NAMED 1891-10-10 03:00:00 NR 18.0500 -83.9000 main 260 249 _____________P -1 18.0500 -83.9000 MH 107 4 328
1891278N12277 1891 43 NA CS NOT_NAMED 1891-10-10 06:00:00 NR 18.2000 -84.0000 main 267 267 _____________O -1 18.2000 -84.0000 MH 110 3 333
1891278N12277 1891 43 NA CS NOT_NAMED 1891-10-10 09:00:00 NR 18.3048 -84.0405 main 278 276 _____________P -1 18.3048 -84.0405 MH 112 4 328
1891278N12277 1891 43 NA CS NOT_NAMED 1891-10-10 12:00:00 NR 18.5000 -84.2000 main 295 295 _____________O -1 18.5000 -84.2000 MH 115 8 317
1891278N12277 1891 43 NA CS NOT_NAMED 1891-10-10 15:00:00 NR 18.9052 -84.6396 main 301 230 _____________P -1 18.9052 -84.6396 MH 117 13 314
1891278N12277 1891 43 NA CS NOT_NAMED 1891-10-10 18:00:00 NR 19.4000 -85.2000 main 230 160 _____________O -1 19.4000 -85.2000 MH 120 951 14 314
1891278N12277 1891 43 NA CS NOT_NAMED 1891-10-10 21:00:00 NR 19.9025 -85.7222 main 160 91 _____________P -1 19.9025 -85.7222 MH 115 13 314
1891278N12277 1891 43 NA CS NOT_NAMED 1891-10-11 00:00:00 NR 20.3000 -86.2000 main 91 45 _____________O -1 20.3000 -86.2000 MH 110 10 305
1891278N12277 1891 43 NA CS NOT_NAMED 1891-10-11 03:00:00 NR 20.4598 -86.5730 main 45 30 _____________P -1 20.4598 -86.5730 MH 105 7 287
1891278N12277 1891 43 NA CS NOT_NAMED 1891-10-11 06:00:00 NR 20.5000 -86.9000 main 30 0 _____________O -1 20.5000 -86.9000 MH 100 7 280
1891278N12277 1891 43 NA NA NOT_NAMED 1891-10-11 09:00:00 NR 20.5725 -87.2650 main 0 0 _____________P -1 20.5725 -87.2650 MH 92 7 279
1891278N12277 1891 43 NA NA NOT_NAMED 1891-10-11 12:00:00 TS 20.6000 -87.6000 main 0 0 _____________O -1 20.6000 -87.6000 HU 85 6 269
1891278N12277 1891 43 NA NA NOT_NAMED 1891-10-11 15:00:00 TS 20.5649 -87.8651 main 0 0 _____________P -1 20.5649 -87.8651 HU 80 5 258
1891278N12277 1891 43 NA NA NOT_NAMED 1891-10-11 18:00:00 TS 20.5000 -88.1000 main 0 0 _____________O -1 20.5000 -88.1000 HU 75 5 256
1891278N12277 1891 43 NA NA NOT_NAMED 1891-10-11 21:00:00 TS 20.4500 -88.3500 main 0 0 _____________P -1 20.4500 -88.3500 HU 70 5 258
1891278N12277 1891 43 NA NA NOT_NAMED 1891-10-12 00:00:00 TS 20.4000 -88.6000 main 0 0 _____________O -1 20.4000 -88.6000 HU 65 5 258
1891278N12277 1891 43 NA NA NOT_NAMED 1891-10-12 03:00:00 TS 20.3500 -88.8500 main 0 0 _____________P -1 20.3500 -88.8500 HU 60 5 258
1891278N12277 1891 43 NA NA NOT_NAMED 1891-10-12 06:00:00 TS 20.3000 -89.1000 main 0 0 _____________O -1 20.3000 -89.1000 TS 55 5 259
1891278N12277 1891 43 NA NA NOT_NAMED 1891-10-12 09:00:00 TS 20.2575 -89.3499 main 0 0 _____________P -1 20.2575 -89.3499 TS 50 5 258
1891278N12277 1891 43 NA NA NOT_NAMED 1891-10-12 12:00:00 TS 20.2000 -89.6000 main 0 0 _____________O -1 20.2000 -89.6000 TS 45 5 252
1891278N12277 1891 43 NA NA NOT_NAMED 1891-10-12 15:00:00 TS 20.1075 -89.8500 main 0 0 _____________P -1 20.1075 -89.8500 TS 42 5 247
1891278N12277 1891 43 NA NA NOT_NAMED 1891-10-12 18:00:00 TS 20.0000 -90.1000 main 0 0 _____________O -1 20.0000 -90.1000 TS 40 5 247
1891278N12277 1891 43 NA NA NOT_NAMED 1891-10-12 21:00:00 TS 19.9075 -90.3499 main 0 0 _____________P -1 19.9075 -90.3499 TS 40 5 247
1891278N12277 1891 43 NA NA NOT_NAMED 1891-10-13 00:00:00 TS 19.8000 -90.6000 main 0 0 _____________O -1 19.8000 -90.6000 TS 40 5 241
1891278N12277 1891 43 NA GM NOT_NAMED 1891-10-13 03:00:00 TS 19.6500 -90.8500 main 20 20 _____________P -1 19.6500 -90.8500 TS 42 6 237
1891278N12277 1891 43 NA GM NOT_NAMED 1891-10-13 06:00:00 TS 19.5000 -91.1000 main 35 30 _____________O -1 19.5000 -91.1000 TS 45 5 242
1891278N12277 1891 43 NA GM NOT_NAMED 1891-10-13 09:00:00 TS 19.4000 -91.3574 main 45 39 _____________P -1 19.4000 -91.3574 TS 47 5 247
1891278N12277 1891 43 NA GM NOT_NAMED 1891-10-13 12:00:00 TS 19.3000 -91.6000 main 45 39 _____________O -1 19.3000 -91.6000 TS 50 5 239
1891278N12277 1891 43 NA GM NOT_NAMED 1891-10-13 15:00:00 TS 19.1500 -91.8075 main 38 38 _____________P -1 19.1500 -91.8075 TS 52 5 231
1891278N12277 1891 43 NA GM NOT_NAMED 1891-10-13 18:00:00 TS 19.0000 -92.0000 main 44 33 _____________O -1 19.0000 -92.0000 TS 55 5 235
1891278N12277 1891 43 NA GM NOT_NAMED 1891-10-13 21:00:00 TS 18.8925 -92.2000 main 33 22 _____________P -1 18.8925 -92.2000 TS 55 4 242
1891278N12277 1891 43 NA GM NOT_NAMED 1891-10-14 00:00:00 TS 18.8000 -92.4000 main 22 11 _____________O -1 18.8000 -92.4000 TS 55 4 243
1891278N12277 1891 43 NA GM NOT_NAMED 1891-10-14 03:00:00 TS 18.7000 -92.6000 main 11 0 _____________P -1 18.7000 -92.6000 TS 55 4 242
1891278N12277 1891 43 NA GM NOT_NAMED 1891-10-14 06:00:00 TS 18.6000 -92.8000 main 10 10 _____________O -1 18.6000 -92.8000 TS 55 4 244
1891278N12277 1891 43 NA GM NOT_NAMED 1891-10-14 09:00:00 TS 18.5150 -92.9999 main 11 10 _____________P -1 18.5150 -92.9999 TS 52 4 242
1891278N12277 1891 43 NA NA NOT_NAMED 1891-10-14 12:00:00 TS 18.4000 -93.2000 main 11 0 _____________O -1 18.4000 -93.2000 TS 50 5 231
1891278N12277 1891 43 NA NA NOT_NAMED 1891-10-14 15:00:00 TS 18.2075 -93.4000 main 0 0 _____________P -1 18.2075 -93.4000 TS 47 6 223
1891278N12277 1891 43 NA NA NOT_NAMED 1891-10-14 18:00:00 TS 18.0000 -93.6000 main 0 0 _____________O -1 18.0000 -93.6000 TS 45 5 226
1891278N12277 1891 43 NA NA NOT_NAMED 1891-10-14 21:00:00 TS 17.8350 -93.8000 main 0 0 _____________P -1 17.8350 -93.8000 TS 35 5 232
1891278N12277 1891 43 NA NA NOT_NAMED 1891-10-15 00:00:00 TS 17.7000 -94.0000 main 0 _____________O -1 17.7000 -94.0000 TD 25 5 235

About IBTrACS Database

This database is a web-friendly format of International Best Track Archive for Climate Stewardship (IBTrACS), a global best track data archive curated by NOAA dating back to 1842.

Updated: 2021-12-06